Terminal Aerodrome Forecast
Issued by NWS Buffalo, NY

Home | Current Version | Previous Version | Text Only | Print | Product List | Glossary On
Versions: 1 2 3 4 5 6 7 8 9 10 11 12 13 14 15 16 17 18 19 20 21 22 23 24 25 26 27
000
FTUS41 KBUF 071128
TAFART
TAF
KART 071128Z 0712/0812 18008KT P6SM SCT045
     FM072200 22010G18KT P6SM VCSH BKN200
     FM072300 22007KT 4SM SHRA VCTS BKN090CB
     FM080100 24008KT 3SM -TSRA OVC025CB
     FM080300 24008KT 3SM -SHRA OVC030
     FM080600 26007KT 6SM BR OVC025=

USA.gov is the U.S. government's official web portal to all federal, state and local government web resources and services.